Time,TemperatureF,DewpointF,PressureIn,WindDirection,WindDirectionDegrees,WindSpeedMPH,WindSpeedGustMPH,Humidity,HourlyPrecipIn,Conditions,Clouds,dailyrainin,SoftwareType,DateUTC
2013-05-31 00:05:00,52.2,40.4,29.89,ESE,112,0.0,-999.0,64,-99.99,,,0.00,Acu-Link.com,2013-05-31 07:05:00,
2013-05-31 00:20:00,51.3,39.9,29.90,ESE,112,0.0,-999.0,65,-99.99,,,0.00,Acu-Link.com,2013-05-31 07:20:00,
2013-05-31 00:35:00,50.5,40.7,29.91,ESE,112,0.0,-999.0,69,-99.99,,,0.00,Acu-Link.com,2013-05-31 07:35:00,
2013-05-31 00:51:00,50.2,40.4,29.91,ESE,112,0.0,-999.0,69,-99.99,,,0.00,Acu-Link.com,2013-05-31 07:51:00,
2013-05-31 01:06:00,48.9,40.3,29.91,ESE,112,0.0,-999.0,72,-99.99,,,0.00,Acu-Link.com,2013-05-31 08:06:00,
2013-05-31 01:22:00,48.9,40.6,29.90,ESE,112,0.0,-999.0,73,-99.99,,,0.00,Acu-Link.com,2013-05-31 08:22:00,
2013-05-31 01:37:00,48.9,40.6,29.90,ESE,112,0.0,-999.0,73,-99.99,,,0.00,Acu-Link.com,2013-05-31 08:37:00,
2013-05-31 01:52:00,49.1,40.5,29.90,ESE,112,0.0,-999.0,72,-99.99,,,0.00,Acu-Link.com,2013-05-31 08:52:00,
2013-05-31 02:07:00,49.3,40.7,29.91,ESE,112,0.0,-999.0,72,-99.99,,,0.00,Acu-Link.com,2013-05-31 09:07:00,
2013-05-31 02:22:00,47.8,39.9,29.92,ESE,112,0.0,-999.0,74,-99.99,,,0.00,Acu-Link.com,2013-05-31 09:22:00,
2013-05-31 02:37:00,47.1,39.9,29.90,ESE,112,0.0,-999.0,76,-99.99,,,0.00,Acu-Link.com,2013-05-31 09:37:00,
2013-05-31 02:53:00,46.4,40.9,29.91,ESE,112,0.0,-999.0,81,-99.99,,,0.00,Acu-Link.com,2013-05-31 09:53:00,
2013-05-31 03:08:00,45.9,39.4,29.90,ESE,112,0.0,-999.0,78,-99.99,,,0.00,Acu-Link.com,2013-05-31 10:08:00,
2013-05-31 03:23:00,45.1,40.3,29.90,ESE,112,0.0,-999.0,83,-99.99,,,0.00,Acu-Link.com,2013-05-31 10:23:00,
2013-05-31 03:38:00,45.1,39.9,29.91,ESE,112,0.0,-999.0,82,-99.99,,,0.00,Acu-Link.com,2013-05-31 10:38:00,
2013-05-31 03:54:00,44.8,40.6,29.90,ESE,112,0.0,-999.0,85,-99.99,,,0.00,Acu-Link.com,2013-05-31 10:54:00,
2013-05-31 04:09:00,45.5,40.0,29.90,ESE,112,0.0,-999.0,81,-99.99,,,0.00,Acu-Link.com,2013-05-31 11:09:00,
2013-05-31 04:24:00,45.5,41.6,29.91,ESE,112,0.0,-999.0,86,-99.99,,,0.00,Acu-Link.com,2013-05-31 11:24:00,
2013-05-31 04:39:00,44.6,40.7,29.92,ESE,112,0.0,-999.0,86,-99.99,,,0.00,Acu-Link.com,2013-05-31 11:39:00,
2013-05-31 04:54:00,43.9,40.0,29.91,ESE,112,0.0,-999.0,86,-99.99,,,0.00,Acu-Link.com,2013-05-31 11:54:00,
2013-05-31 05:10:00,43.9,40.0,29.92,ESE,112,0.0,-999.0,86,-99.99,,,0.00,Acu-Link.com,2013-05-31 12:10:00,
2013-05-31 05:25:00,43.5,40.2,29.93,ESE,112,0.0,-999.0,88,-99.99,,,0.00,Acu-Link.com,2013-05-31 12:25:00,
2013-05-31 05:40:00,44.1,40.8,29.93,ESE,112,0.0,-999.0,88,-99.99,,,0.00,Acu-Link.com,2013-05-31 12:40:00,
2013-05-31 05:56:00,43.0,40.8,29.93,ESE,112,0.0,-999.0,92,-99.99,,,0.00,Acu-Link.com,2013-05-31 12:56:00,
2013-05-31 06:11:00,45.9,42.3,29.94,ESE,112,0.0,-999.0,87,-99.99,,,0.00,Acu-Link.com,2013-05-31 13:11:00,
2013-05-31 06:26:00,45.1,41.2,29.95,ESE,112,0.0,-999.0,86,-99.99,,,0.00,Acu-Link.com,2013-05-31 13:26:00,
2013-05-31 06:42:00,45.9,42.0,29.95,ESE,112,0.0,-999.0,86,-99.99,,,0.00,Acu-Link.com,2013-05-31 13:42:00,
2013-05-31 06:57:00,47.8,42.6,29.96,ESE,112,0.0,-999.0,82,-99.99,,,0.00,Acu-Link.com,2013-05-31 13:57:00,
2013-05-31 07:12:00,48.9,44.0,29.97,ESE,112,0.0,-999.0,83,-99.99,,,0.00,Acu-Link.com,2013-05-31 14:12:00,
2013-05-31 07:27:00,50.7,46.7,29.98,ESE,112,0.0,-999.0,86,-99.99,,,0.00,Acu-Link.com,2013-05-31 14:27:00,
2013-05-31 07:42:00,52.3,48.2,29.98,ESE,112,0.0,-999.0,86,-99.99,,,0.00,Acu-Link.com,2013-05-31 14:42:00,
2013-05-31 07:58:00,54.7,48.7,29.98,ESE,112,0.0,-999.0,80,-99.99,,,0.00,Acu-Link.com,2013-05-31 14:58:00,
2013-05-31 08:13:00,57.2,49.0,29.97,ESE,112,0.0,-999.0,74,-99.99,,,0.00,Acu-Link.com,2013-05-31 15:13:00,
2013-05-31 08:28:00,59.0,49.6,29.97,ESE,112,0.0,-999.0,71,-99.99,,,0.00,Acu-Link.com,2013-05-31 15:28:00,
2013-05-31 08:44:00,62.6,48.5,29.98,NNW,337,3.7,-999.0,60,-99.99,,,0.00,Acu-Link.com,2013-05-31 15:44:00,
2013-05-31 08:59:00,66.0,48.4,29.98,NNW,337,3.2,-999.0,53,-99.99,,,0.00,Acu-Link.com,2013-05-31 15:59:00,
2013-05-31 09:14:00,68.2,47.8,29.96,NNW,337,3.2,-999.0,48,-99.99,,,0.00,Acu-Link.com,2013-05-31 16:14:00,
2013-05-31 09:29:00,69.1,48.0,29.97,NNW,337,3.2,-999.0,47,-99.99,,,0.00,Acu-Link.com,2013-05-31 16:29:00,
2013-05-31 09:45:00,73.9,49.3,29.95,NNW,337,2.7,-999.0,42,-99.99,,,0.00,Acu-Link.com,2013-05-31 16:45:00,
2013-05-31 10:00:00,76.6,49.8,29.95,NNW,337,1.7,-999.0,39,-99.99,,,0.00,Acu-Link.com,2013-05-31 17:00:00,
2013-05-31 10:15:00,73.2,48.7,29.94,NNW,337,3.2,-999.0,42,-99.99,,,0.00,Acu-Link.com,2013-05-31 17:15:00,
2013-05-31 10:30:00,76.1,47.2,29.95,NNW,337,1.1,-999.0,36,-99.99,,,0.00,Acu-Link.com,2013-05-31 17:30:00,
2013-05-31 10:45:00,75.9,47.0,29.93,NNW,337,0.0,-999.0,36,-99.99,,,0.00,Acu-Link.com,2013-05-31 17:45:00,
2013-05-31 11:00:00,77.7,47.8,29.92,West,270,4.7,-999.0,35,-99.99,,,0.00,Acu-Link.com,2013-05-31 18:00:00,
2013-05-31 11:16:00,80.2,45.9,29.92,ENE,67,4.7,-999.0,30,-99.99,,,0.00,Acu-Link.com,2013-05-31 18:16:00,
2013-05-31 11:31:00,82.6,49.7,29.92,NNW,337,3.2,-999.0,32,-99.99,,,0.00,Acu-Link.com,2013-05-31 18:31:00,
2013-05-31 11:46:00,79.3,49.3,29.91,NNW,337,6.3,-999.0,35,-99.99,,,0.00,Acu-Link.com,2013-05-31 18:46:00,
2013-05-31 12:02:00,79.3,47.7,29.90,North,0,7.3,-999.0,33,-99.99,,,0.00,Acu-Link.com,2013-05-31 19:02:00,
2013-05-31 12:17:00,82.0,50.8,29.90,NNE,22,3.2,-999.0,34,-99.99,,,0.00,Acu-Link.com,2013-05-31 19:17:00,
2013-05-31 12:32:00,83.3,49.5,29.90,NNW,337,2.7,-999.0,31,-99.99,,,0.00,Acu-Link.com,2013-05-31 19:32:00,
2013-05-31 12:47:00,85.6,47.8,29.92,SSW,202,2.7,-999.0,27,-99.99,,,0.00,Acu-Link.com,2013-05-31 19:47:00,
2013-05-31 13:03:00,86.5,46.5,29.92,North,0,4.7,-999.0,25,-99.99,,,0.00,Acu-Link.com,2013-05-31 20:03:00,
2013-05-31 13:18:00,87.8,44.2,29.91,WNW,292,4.7,-999.0,22,-99.99,,,0.00,Acu-Link.com,2013-05-31 20:18:00,
2013-05-31 13:33:00,85.1,46.3,29.90,NNW,337,5.8,-999.0,26,-99.99,,,0.00,Acu-Link.com,2013-05-31 20:33:00,
2013-05-31 13:48:00,87.4,46.1,29.89,North,0,6.3,-999.0,24,-99.99,,,0.00,Acu-Link.com,2013-05-31 20:48:00,
2013-05-31 14:04:00,89.1,48.7,29.89,West,270,4.2,-999.0,25,-99.99,,,0.00,Acu-Link.com,2013-05-31 21:04:00,
2013-05-31 14:19:00,89.8,48.2,29.89,NNW,337,2.7,-999.0,24,-99.99,,,0.00,Acu-Link.com,2013-05-31 21:19:00,
2013-05-31 14:34:00,89.1,47.6,29.89,NNE,22,3.2,-999.0,24,-99.99,,,0.00,Acu-Link.com,2013-05-31 21:34:00,
2013-05-31 14:49:00,90.3,47.4,29.88,NNW,337,0.0,-999.0,23,-99.99,,,0.00,Acu-Link.com,2013-05-31 21:49:00,
2013-05-31 15:04:00,87.1,42.4,29.88,NNE,22,2.7,-999.0,21,-99.99,,,0.00,Acu-Link.com,2013-05-31 22:04:00,
2013-05-31 15:20:00,89.6,43.2,29.87,West,270,3.2,-999.0,20,-99.99,,,0.00,Acu-Link.com,2013-05-31 22:20:00,
2013-05-31 15:35:00,89.1,42.8,29.87,NNE,22,7.3,-999.0,20,-99.99,,,0.00,Acu-Link.com,2013-05-31 22:35:00,
2013-05-31 15:50:00,91.4,44.7,29.86,NNE,22,2.2,-999.0,20,-99.99,,,0.00,Acu-Link.com,2013-05-31 22:50:00,
2013-05-31 16:05:00,88.9,47.4,29.86,NNW,337,4.2,-999.0,24,-99.99,,,0.00,Acu-Link.com,2013-05-31 23:05:00,
2013-05-31 16:20:00,91.2,44.5,29.86,NNE,22,1.7,-999.0,20,-99.99,,,0.00,Acu-Link.com,2013-05-31 23:20:00,
2013-05-31 16:35:00,91.8,45.0,29.85,WNW,292,5.3,-999.0,20,-99.99,,,0.00,Acu-Link.com,2013-05-31 23:35:00,
2013-05-31 16:50:00,91.6,44.8,29.87,North,0,1.7,-999.0,20,-99.99,,,0.00,Acu-Link.com,2013-05-31 23:50:00,
2013-05-31 17:06:00,93.0,41.7,29.86,ESE,112,3.7,-999.0,17,-99.99,,,0.00,Acu-Link.com,2013-06-01 00:06:00,
2013-05-31 17:21:00,91.9,43.7,29.85,WSW,247,2.2,-999.0,19,-99.99,,,0.00,Acu-Link.com,2013-06-01 00:21:00,
2013-05-31 17:36:00,91.2,41.7,29.85,WNW,292,2.2,-999.0,18,-99.99,,,0.00,Acu-Link.com,2013-06-01 00:36:00,
2013-05-31 17:51:00,88.7,46.1,29.85,North,0,1.7,-999.0,23,-99.99,,,0.00,Acu-Link.com,2013-06-01 00:51:00,
2013-05-31 18:07:00,88.5,44.8,29.85,North,0,2.7,-999.0,22,-99.99,,,0.00,Acu-Link.com,2013-06-01 01:07:00,
2013-05-31 18:22:00,87.8,44.2,29.86,North,0,4.2,-999.0,22,-99.99,,,0.00,Acu-Link.com,2013-06-01 01:22:00,
2013-05-31 18:37:00,88.9,45.1,29.85,North,0,2.2,-999.0,22,-99.99,,,0.00,Acu-Link.com,2013-06-01 01:37:00,
2013-05-31 18:52:00,85.8,41.3,29.85,NNW,337,4.7,-999.0,21,-99.99,,,0.00,Acu-Link.com,2013-06-01 01:52:00,
2013-05-31 19:07:00,85.8,44.8,29.85,NNW,337,3.7,-999.0,24,-99.99,,,0.00,Acu-Link.com,2013-06-01 02:07:00,
2013-05-31 19:22:00,83.1,45.6,29.85,NNW,337,0.0,-999.0,27,-99.99,,,0.00,Acu-Link.com,2013-06-01 02:22:00,
2013-05-31 19:38:00,80.4,43.3,29.86,NNE,22,0.0,-999.0,27,-99.99,,,0.00,Acu-Link.com,2013-06-01 02:38:00,
2013-05-31 19:53:00,77.9,42.2,29.87,NNE,22,0.0,-999.0,28,-99.99,,,0.00,Acu-Link.com,2013-06-01 02:53:00,
2013-05-31 20:08:00,75.2,40.7,29.86,NNE,22,2.7,-999.0,29,-99.99,,,0.00,Acu-Link.com,2013-06-01 03:08:00,
2013-05-31 20:23:00,72.3,50.3,29.85,ESE,112,2.7,-999.0,46,-99.99,,,0.00,Acu-Link.com,2013-06-01 03:23:00,
2013-05-31 20:38:00,71.2,52.1,29.87,ESE,112,1.7,-999.0,51,-99.99,,,0.00,Acu-Link.com,2013-06-01 03:38:00,
2013-05-31 20:54:00,69.3,51.9,29.87,ESE,112,0.0,-999.0,54,-99.99,,,0.00,Acu-Link.com,2013-06-01 03:54:00,
2013-05-31 21:09:00,67.5,52.2,29.87,ESE,112,0.0,-999.0,58,-99.99,,,0.00,Acu-Link.com,2013-06-01 04:09:00,
2013-05-31 21:24:00,65.1,52.2,29.87,ESE,112,1.7,-999.0,63,-99.99,,,0.00,Acu-Link.com,2013-06-01 04:24:00,
2013-05-31 21:39:00,64.0,52.4,29.87,ESE,112,2.7,-999.0,66,-99.99,,,0.00,Acu-Link.com,2013-06-01 04:39:00,
2013-05-31 21:55:00,62.8,52.1,29.88,ESE,112,3.2,-999.0,68,-99.99,,,0.00,Acu-Link.com,2013-06-01 04:55:00,
2013-05-31 22:10:00,62.1,52.2,29.88,ESE,112,2.7,-999.0,70,-99.99,,,0.00,Acu-Link.com,2013-06-01 05:10:00,
2013-05-31 22:25:00,61.5,52.4,29.89,ESE,112,2.7,-999.0,72,-99.99,,,0.00,Acu-Link.com,2013-06-01 05:25:00,
2013-05-31 22:40:00,61.3,52.2,29.89,ESE,112,2.2,-999.0,72,-99.99,,,0.00,Acu-Link.com,2013-06-01 05:40:00,
2013-05-31 22:56:00,61.3,52.2,29.88,ESE,112,2.7,-999.0,72,-99.99,,,0.00,Acu-Link.com,2013-06-01 05:56:00,
2013-05-31 23:11:00,61.0,51.9,29.88,ESE,112,0.0,-999.0,72,-99.99,,,0.00,Acu-Link.com,2013-06-01 06:11:00,
2013-05-31 23:26:00,60.3,52.0,29.88,ESE,112,0.0,-999.0,74,-99.99,,,0.00,Acu-Link.com,2013-06-01 06:26:00,
2013-05-31 23:42:00,59.9,52.0,29.87,ESE,112,0.0,-999.0,75,-99.99,,,0.00,Acu-Link.com,2013-06-01 06:42:00,
2013-05-31 23:57:00,59.2,51.6,29.88,ESE,112,0.0,-999.0,76,-99.99,,,0.00,Acu-Link.com,2013-06-01 06:57:00,